Terminal Aerodrome Forecast
Issued by NWS

Home | Current Version | Previous Version | Text Only | Print | Product List | Glossary On
Versions: 1 2 3 4 5 6 7 8 9 10 11 12 13 14 15 16 17 18 19 20 21 22 23 24 25 26 27 28 29 30 31 32 33 34 35 36 37 38 39 40 41 42 43 44 45 46 47 48 49 50
000
FTUS41 KCTP 011727
TAFBFD
TAF
KBFD 011727Z 0118/0218 27016G21KT P6SM VCSH FEW022 BKN040 OVC060
     FM012000 28010KT P6SM OVC025
     FM020100 28005KT P6SM BKN100
     FM020600 30002KT 2SM BR OVC003
     FM020900 30002KT 1/4SM FG OVC001
      TEMPO 0213/0215 5SM BR SCT001 BKN009
     FM021500 35004KT P6SM BKN025=

USA.gov is the U.S. government's official web portal to all federal, state and local government web resources and services.